• Join FlightAware (Why Join?)
  • Login
  • US Flag 
10:28AM EDT


 

Airport Tracker/Info


-or-


 

Live Flight TrackerFlight Track Log ✈ N789EX ✈ 19-Mar-2014 ✈ KMWH - KBFI

Flight Track Log - Related Links

Times and Time Zones

All times are in EDT time to prevent confusion due to time zone crossing. See the N789EX flight status page for this flight to view local times or setup timezone preferences in your user account.

Time Position Orientation Groundspeed Altitude Reporting Facility
EDT Latitude Longitude Course Direction KTS MPH feet Rate Location/Type
03:55PM 47.1908 -118.9628 301° West 263 303 9,300  Level Seattle Center
03:56PM 47.2306 -119.0589 301° West 274 315 10,000 1,380 Climbing Seattle Center
03:57PM 47.2792 -119.1800 301° West 343 395 12,200 2,640 Climbing Seattle Center
03:58PM 47.3356 -119.3233 300° West 379 436 15,400 1,800 Climbing Seattle Center
03:59PM 47.3792 -119.4672 294° West 386 444 15,900 60 Climbing Seattle Center
04:05PM 47.6237 -120.3390 292° West 386 444 16,000  Climbing FlightAware ADS-B
04:06PM 47.6441 -120.4130 292° West 386 444 16,000 -120 Level FlightAware ADS-B
04:06PM 47.6681 -120.5000 292° West 389 448 15,900  Descending FlightAware ADS-B
04:07PM 47.6883 -120.5750 292° West 388 447 16,000  Climbing FlightAware ADS-B
04:07PM 47.7099 -120.6540 292° West 390 449 15,900 -120 Descending FlightAware ADS-B
04:08PM 47.7307 -120.7310 292° West 387 445 15,900  Level FlightAware ADS-B
04:08PM 47.7507 -120.8050 292° West 385 443 15,900  Level FlightAware ADS-B
04:09PM 47.7705 -120.8790 292° West 381 438 15,900  Level FlightAware ADS-B
04:09PM 47.7903 -120.9520 292° West 382 440 15,900  Level FlightAware ADS-B
04:10PM 47.8100 -121.0260 292° West 385 443 15,900  Level FlightAware ADS-B
04:10PM 47.8298 -121.1000 292° West 388 447 15,900  Level FlightAware ADS-B
04:11PM 47.8417 -121.1460 291° West 387 445 15,900  Level FlightAware ADS-B
04:11PM 47.8472 -121.1700 287° West 382 440 15,900  Level FlightAware ADS-B
04:11PM 47.8530 -121.2030 283° West 365 420 15,900 -600 Level FlightAware ADS-B
04:11PM 47.8574 -121.2410 278° West 349 402 15,600 -1,680 Descending FlightAware ADS-B
04:12PM 47.8617 -121.3080 276° West 344 396 14,700 -2,220 Descending FlightAware ADS-B
04:12PM 47.8664 -121.3790 275° West 341 392 13,500 -2,340 Descending FlightAware ADS-B
04:13PM 47.8706 -121.4460 275° West 333 383 12,400 -1,800 Descending FlightAware ADS-B
04:13PM 47.8747 -121.5140 275° West 317 365 11,700 -1,020 Descending FlightAware ADS-B
04:14PM 47.8788 -121.5760 275° West 293 337 11,400 -540 Descending FlightAware ADS-B
04:14PM 47.8824 -121.6340 275° West 269 310 11,200 -600 Descending FlightAware ADS-B
04:14PM 47.8825 -121.6362 275° West 266 306 11,100 -900 Descending FlightAware ADS-B (CYVR)
04:15PM 47.8844 -121.6700 274° West 258 297 10,900 -540 Descending FlightAware ADS-B
04:15PM 47.8844 -121.6800 268° West 256 295 10,900  Level FlightAware ADS-B
04:15PM 47.8836 -121.6894 262° West 254 292 10,900  Level FlightAware ADS-B (CYVR)
04:15PM 47.8833 -121.6920 260° West 253 291 10,900  Level FlightAware ADS-B
04:15PM 47.8777 -121.7260 256° West 254 292 10,900  Level FlightAware ADS-B
04:16PM 47.8694 -121.7780 257° West 254 292 10,900  Level FlightAware ADS-B
04:16PM 47.8616 -121.8290 257° West 253 291 10,900 -240 Level FlightAware ADS-B
04:17PM 47.8547 -121.8750 257° West 252 290 10,700 -900 Descending FlightAware ADS-B
04:17PM 47.8470 -121.9260 257° West 251 289 10,100 -1,200 Descending FlightAware ADS-B
04:17PM 47.8431 -121.9520 258° West 252 290 9,800 -1,140 Descending FlightAware ADS-B
04:18PM 47.8404 -121.9700 258° West 253 291 9,600 -1,200 Descending FlightAware ADS-B
04:18PM 47.8368 -121.9950 258° West 248 285 9,300 -1,560 Descending FlightAware ADS-B
04:18PM 47.8330 -122.0220 258° West 247 284 8,800 -1,800 Descending FlightAware ADS-B
04:18PM 47.8293 -122.0470 258° West 249 287 8,400 -1,800 Descending FlightAware ADS-B
04:19PM 47.8254 -122.0730 258° West 250 288 7,900 -1,680 Descending FlightAware ADS-B
04:19PM 47.8238 -122.0840 257° West 250 288 7,800 -1,140 Descending FlightAware ADS-B
04:19PM 47.8226 -122.0900 254° West 250 288 7,700 -2,040 Descending FlightAware ADS-B
04:19PM 47.8218 -122.0939 252° West 248 285 7,600 -1,200 Descending FlightAware ADS-B (CYVR)
04:19PM 47.8206 -122.0990 250° West 248 285 7,600 -1,680 Level FlightAware ADS-B
04:19PM 47.8140 -122.1230 247° West 248 285 7,100 -1,920 Descending FlightAware ADS-B
04:19PM 47.8139 -122.1240 247° West 249 287 7,100 -1,500 Level FlightAware ADS-B (CYVR)
04:19PM 47.8073 -122.1470 247° West 248 285 6,700 -1,440 Descending FlightAware ADS-B
04:20PM 47.8005 -122.1700 247° West 246 283 6,400 -1,440 Descending FlightAware ADS-B
04:20PM 47.7935 -122.1940 246° West 245 282 6,000 -1,500 Descending FlightAware ADS-B
04:20PM 47.7877 -122.2140 247° West 241 277 5,700 -1,500 Descending FlightAware ADS-B
04:20PM 47.7811 -122.2370 247° West 239 275 5,300 -1,440 Descending FlightAware ADS-B
04:21PM 47.7744 -122.2590 246° West 230 265 5,000 -1,140 Descending FlightAware ADS-B
04:21PM 47.7672 -122.2840 247° West 217 250 4,700 -1,260 Descending FlightAware ADS-B
04:21PM 47.7626 -122.3000 246° West 212 244 4,400 -1,800 Descending FlightAware ADS-B
04:21PM 47.7564 -122.3200 246° West 209 241 3,900 -2,160 Descending FlightAware ADS-B
04:22PM 47.7504 -122.3400 246° West 209 241 3,300 -2,160 Descending FlightAware ADS-B
04:22PM 47.7454 -122.3570 247° West 211 243 2,900 -1,920 Descending FlightAware ADS-B
04:22PM 47.7417 -122.3700 247° West 215 247 2,600 -780 Descending FlightAware ADS-B
04:23PM 47.7173 -122.4380 247° West 212 244 2,100 -480 Descending FlightAware ADS-B
04:23PM 47.7098 -122.4400 188° South 181 208 2,100  Level FlightAware ADS-B
04:23PM 47.7065 -122.4400 178° South 178 205 2,100  Level FlightAware ADS-B
04:24PM 47.6792 -122.4290 153° Southeast 179 206 2,100  Level FlightAware ADS-B
04:24PM 47.6655 -122.4180 153° Southeast 179 206 2,100  Level FlightAware ADS-B
04:24PM 47.6539 -122.4080 150° Southeast 178 205 2,100  Level FlightAware ADS-B
04:24PM 47.6467 -122.4020 149° Southeast 177 204 2,100  Level FlightAware ADS-B
04:25PM 47.6414 -122.3970 149° Southeast 175 201 2,100 -300 Level FlightAware ADS-B
04:25PM 47.6322 -122.3890 150° Southeast 164 189 2,000 -420 Descending FlightAware ADS-B
04:25PM 47.6221 -122.3800 150° Southeast 158 182 1,900 -840 Descending FlightAware ADS-B
04:25PM 47.6085 -122.3690 150° Southeast 155 178 1,500 -1,020 Descending FlightAware ADS-B
04:26PM 47.6025 -122.3630 150° Southeast 153 176 1,400 -720 Descending FlightAware ADS-B
04:26PM 47.5744 -122.3419 150° Southeast 140 161 800 -720 Descending Seattle Center
04:27PM 47.5644 -122.3319 146° Southeast 139 160 600 -720 Descending Seattle Center
04:27PM 47.5408 -122.3144 153° Southeast 131 151 100 -540 Descending Seattle Center
04:28PM 47.5336 -122.3056 140° Southeast 138 159 100  Level Seattle Center
04:30PM 47.5300 -122.3020 247° West  Level Estimated